Time;durP1;ratioP1;P1;durP2;ratioP2;P2;SDS_P1;SDS_P2;PMS_P1;PMS_P2;Temp;Humidity;BMP_temperature;BMP_pressure;BME280_temperature;BME280_humidity;BME280_pressure;Samples;Min_cycle;Max_cycle;Signal;HPM_P1;HPM_P2
2023/03/04 00:01:35;;;;;;;46.17;20.07;;;3.00;99.90;;;;;;5054625;28;20079;-71
2023/03/04 00:04:01;;;;;;;43.13;20.57;;;2.90;99.90;;;;;;5054318;28;20090;-72
2023/03/04 00:06:27;;;;;;;42.93;20.43;;;2.90;99.90;;;;;;5067520;28;20054;-71
2023/03/04 00:08:52;;;;;;;47.17;20.43;;;2.90;99.90;;;;;;5074616;28;20074;-71
2023/03/04 00:11:18;;;;;;;49.97;21.27;;;2.90;99.90;;;;;;5073086;28;20027;-71
2023/03/04 00:13:43;;;;;;;56.17;25.47;;;2.80;99.90;;;;;;5073380;28;20024;-71
2023/03/04 00:16:09;;;;;;;49.10;22.73;;;2.70;99.90;;;;;;5074792;28;20027;-73
2023/03/04 00:18:34;;;;;;;45.37;20.33;;;2.80;99.90;;;;;;5073422;28;20428;-72
2023/03/04 00:21:00;;;;;;;52.17;21.07;;;2.70;99.90;;;;;;5073586;28;20027;-73
2023/03/04 00:23:26;;;;;;;48.90;21.33;;;2.70;99.90;;;;;;5074660;28;20530;-71
2023/03/04 00:25:51;;;;;;;48.37;22.90;;;2.70;99.90;;;;;;5074573;28;20055;-70
2023/03/04 00:28:17;;;;;;;49.97;23.33;;;2.70;99.90;;;;;;5073147;28;20123;-71
2023/03/04 00:30:43;;;;;;;57.43;24.77;;;2.70;99.90;;;;;;5073161;28;20051;-72
2023/03/04 00:33:08;;;;;;;54.93;25.40;;;2.60;99.90;;;;;;5074901;28;20024;-72
2023/03/04 00:35:34;;;;;;;55.13;24.93;;;2.60;99.90;;;;;;5073094;28;20025;-72
2023/03/04 00:37:59;;;;;;;57.87;25.13;;;2.60;99.90;;;;;;5056933;28;20500;-72
2023/03/04 00:40:25;;;;;;;59.27;24.33;;;2.50;99.90;;;;;;5053073;28;20025;-72
2023/03/04 00:42:50;;;;;;;58.43;24.83;;;2.50;99.90;;;;;;5057057;28;20025;-73
2023/03/04 00:45:16;;;;;;;60.47;25.17;;;2.50;99.90;;;;;;5059795;28;20650;-72
2023/03/04 00:47:41;;;;;;;57.07;23.83;;;2.40;99.90;;;;;;5055116;28;20025;-72
2023/03/04 00:50:08;;;;;;;55.27;25.40;;;2.50;99.90;;;;;;5052875;28;20032;-72
2023/03/04 00:52:33;;;;;;;56.85;24.80;;;2.40;99.90;;;;;;5055769;28;20044;-73
2023/03/04 00:54:59;;;;;;;58.90;25.63;;;2.40;99.90;;;;;;5055014;28;20029;-72
2023/03/04 00:57:24;;;;;;;56.53;25.53;;;2.40;99.90;;;;;;5054128;28;20466;-72
2023/03/04 00:59:50;;;;;;;59.87;24.23;;;2.40;99.90;;;;;;5095377;22;20040;-73
2023/03/04 01:02:15;;;;;;;56.57;25.30;;;2.30;99.90;;;;;;5092523;28;20020;-73
2023/03/04 01:04:41;;;;;;;65.80;26.67;;;2.30;99.90;;;;;;5092305;28;20020;-73
2023/03/04 01:07:07;;;;;;;58.85;26.35;;;2.30;99.90;;;;;;5092646;28;20114;-74
2023/03/04 01:09:33;;;;;;;62.17;26.42;;;2.30;99.90;;;;;;5091699;28;20032;-73
2023/03/04 01:11:58;;;;;;;65.10;27.90;;;2.20;99.90;;;;;;5081399;28;20111;-73
2023/03/04 01:14:24;;;;;;;60.03;25.07;;;2.10;99.90;;;;;;5077397;28;20028;-74
2023/03/04 01:16:50;;;;;;;67.75;27.35;;;2.20;99.90;;;;;;5076069;28;20021;-74
2023/03/04 01:19:16;;;;;;;64.30;25.60;;;2.10;99.90;;;;;;5077237;28;20043;-74
2023/03/04 01:21:41;;;;;;;65.13;26.53;;;2.00;99.90;;;;;;5076068;28;20025;-73
2023/03/04 01:24:08;;;;;;;66.57;26.10;;;2.00;99.90;;;;;;5077222;28;20036;-74
2023/03/04 01:26:33;;;;;;;;;;;2.00;99.90;;;;;;5076352;28;20028;-73
2023/03/04 01:28:59;;;;;;;62.53;25.98;;;2.00;99.90;;;;;;5075144;28;20281;-73
2023/03/04 01:31:25;;;;;;;61.78;25.90;;;2.00;99.90;;;;;;5076667;28;20027;-73
2023/03/04 01:33:51;;;;;;;67.93;26.97;;;2.00;99.90;;;;;;5075539;28;20032;-72
2023/03/04 01:36:16;;;;;;;71.30;28.00;;;1.90;99.90;;;;;;5071733;28;20027;-73
2023/03/04 01:38:42;;;;;;;65.43;25.80;;;1.90;99.90;;;;;;5058190;28;20095;-72
2023/03/04 01:41:07;;;;;;;68.13;26.67;;;1.90;99.90;;;;;;5057940;28;20339;-73
2023/03/04 01:43:35;;;;;;;69.65;27.23;;;1.90;99.90;;;;;;5056450;28;20397;-73
2023/03/04 01:46:01;;;;;;;72.78;28.00;;;1.80;99.90;;;;;;5055967;28;20035;-74
2023/03/04 01:48:32;;;;;;;70.60;27.67;;;1.70;99.90;;;;;;5056144;28;20025;-74
2023/03/04 01:51:01;;;;;;;70.70;28.67;;;1.70;99.90;;;;;;5056966;28;20075;-73
2023/03/04 01:53:28;;;;;;;73.18;26.98;;;1.80;99.90;;;;;;5055749;28;20392;-73
2023/03/04 01:55:59;;;;;;;72.10;27.25;;;1.70;99.90;;;;;;5056464;28;20071;-74
2023/03/04 01:58:29;;;;;;;73.97;29.90;;;1.70;99.90;;;;;;5056720;28;20386;-73
2023/03/04 02:00:54;;;;;;;82.15;28.80;;;1.60;99.90;;;;;;5072439;28;20036;-73
2023/03/04 02:03:20;;;;;;;77.13;27.77;;;1.70;99.90;;;;;;5076546;28;20400;-72
2023/03/04 02:05:48;;;;;;;72.70;27.57;;;1.60;99.90;;;;;;5083382;28;20270;-73
2023/03/04 02:08:14;;;;;;;77.15;29.80;;;1.70;99.90;;;;;;5097352;28;20380;-73
2023/03/04 02:10:42;;;;;;;74.22;29.35;;;1.60;99.90;;;;;;5096525;28;20049;-73
2023/03/04 02:13:08;;;;;;;77.57;28.58;;;1.60;99.90;;;;;;5090450;28;20032;-73
2023/03/04 02:15:34;;;;;;;78.55;29.08;;;1.50;99.90;;;;;;5074708;28;20131;-74
2023/03/04 02:18:12;;;;;;;74.83;27.63;;;1.50;99.90;;;;;;5074590;28;20059;-72
2023/03/04 02:20:47;;;;;;;75.35;28.77;;;1.50;99.90;;;;;;5072994;28;20029;-72
2023/03/04 02:23:29;;;;;;;79.20;28.48;;;1.40;99.90;;;;;;5074478;28;20021;-72
2023/03/04 02:26:13;;;;;;;78.30;28.17;;;1.40;99.90;;;;;;5074402;28;20173;-72
2023/03/04 02:28:39;;;;;;;81.30;29.17;;;1.40;99.90;;;;;;5076090;28;20366;-73
2023/03/04 02:31:05;;;;;;;;;;;1.40;99.90;;;;;;5076364;28;20047;-73
2023/03/04 02:33:32;;;;;;;79.00;28.70;;;1.30;99.90;;;;;;5077428;28;20369;-74
2023/03/04 02:35:57;;;;;;;;;;;1.30;99.90;;;;;;5076758;28;20404;-73
2023/03/04 02:38:23;;;;;;;82.43;27.90;;;1.30;99.90;;;;;;5076236;28;19905;-73
2023/03/04 02:40:51;;;;;;;86.13;27.67;;;1.30;99.90;;;;;;5075585;28;20036;-73
2023/03/04 02:43:17;;;;;;;81.43;29.08;;;1.20;99.90;;;;;;5075837;28;20050;-72
2023/03/04 02:45:48;;;;;;;79.20;28.23;;;1.20;99.90;;;;;;5075331;28;20481;-72
2023/03/04 02:48:18;;;;;;;86.95;29.67;;;1.20;99.90;;;;;;5074437;28;20020;-73
2023/03/04 02:50:50;;;;;;;84.63;30.58;;;1.20;99.90;;;;;;5074292;28;20020;-73
2023/03/04 02:53:16;;;;;;;90.22;30.77;;;1.20;99.90;;;;;;5073735;28;20030;-73
2023/03/04 02:55:42;;;;;;;86.15;30.40;;;1.20;99.90;;;;;;5075330;28;20029;-74
2023/03/04 02:58:08;;;;;;;83.95;30.10;;;1.20;99.90;;;;;;5074109;28;20074;-73
2023/03/04 03:00:34;;;;;;;88.95;29.17;;;1.20;99.90;;;;;;5073528;28;20032;-73
2023/03/04 03:03:00;;;;;;;86.38;28.80;;;1.20;99.90;;;;;;5073948;28;20084;-73
2023/03/04 03:05:28;;;;;;;91.80;31.07;;;1.20;99.90;;;;;;5075263;28;20051;-74
2023/03/04 03:07:54;;;;;;;85.80;29.92;;;1.20;99.90;;;;;;5074599;28;20016;-74
2023/03/04 03:10:20;;;;;;;83.80;30.07;;;1.20;99.90;;;;;;5077054;28;20370;-72
2023/03/04 03:12:46;;;;;;;96.30;30.60;;;1.30;99.90;;;;;;5077093;28;20020;-73
2023/03/04 03:15:12;;;;;;;79.03;28.65;;;1.30;99.90;;;;;;5075622;28;20038;-74
2023/03/04 03:17:38;;;;;;;87.03;28.98;;;1.20;99.90;;;;;;5078668;28;20326;-73
2023/03/04 03:20:04;;;;;;;95.10;30.50;;;1.30;99.90;;;;;;5077695;28;20028;-73
2023/03/04 03:22:29;;;;;;;86.78;30.92;;;1.30;99.90;;;;;;5079345;28;20558;-73
2023/03/04 03:24:55;;;;;;;77.03;27.87;;;1.30;99.90;;;;;;5082012;28;20024;-74
2023/03/04 03:27:20;;;;;;;85.97;29.43;;;1.40;99.90;;;;;;5079158;28;20024;-74
2023/03/04 03:29:46;;;;;;;80.60;28.23;;;1.40;99.90;;;;;;5070405;28;20488;-73
2023/03/04 03:32:11;;;;;;;87.40;30.33;;;1.40;99.90;;;;;;5058180;28;20021;-73
2023/03/04 03:34:37;;;;;;;83.40;28.87;;;1.40;99.90;;;;;;5058332;28;20474;-73
2023/03/04 03:37:03;;;;;;;81.38;29.17;;;1.50;99.90;;;;;;5060919;28;20052;-72
2023/03/04 03:39:28;;;;;;;87.87;29.80;;;1.40;99.90;;;;;;5055081;28;20033;-73
2023/03/04 03:41:54;;;;;;;83.80;30.63;;;1.40;99.90;;;;;;5055459;28;20021;-73
2023/03/04 03:44:20;;;;;;;82.53;29.83;;;1.30;99.90;;;;;;5055813;28;20082;-72
2023/03/04 03:46:46;;;;;;;96.20;30.97;;;1.30;99.90;;;;;;5054110;28;20469;-73
2023/03/04 03:49:11;;;;;;;89.55;30.27;;;1.30;99.90;;;;;;5054899;28;20025;-72
2023/03/04 03:51:37;;;;;;;88.87;30.20;;;1.20;99.90;;;;;;5054106;28;20102;-73
2023/03/04 03:54:02;;;;;;;84.03;30.03;;;1.20;99.90;;;;;;5053665;28;20029;-73
2023/03/04 03:56:28;;;;;;;84.07;29.53;;;1.20;99.90;;;;;;5054937;28;20021;-73
2023/03/04 03:58:53;;;;;;;96.03;31.30;;;1.20;99.90;;;;;;5056543;28;20029;-72
2023/03/04 04:01:19;;;;;;;88.27;30.40;;;1.10;99.90;;;;;;5075456;28;20028;-73
2023/03/04 04:03:44;;;;;;;86.20;30.47;;;1.10;99.90;;;;;;5073603;28;20024;-73
2023/03/04 04:06:10;;;;;;;86.47;30.33;;;1.10;99.90;;;;;;5073859;28;20361;-72
2023/03/04 04:08:36;;;;;;;88.27;31.40;;;1.10;99.90;;;;;;5073670;28;20064;-72
2023/03/04 04:11:01;;;;;;;91.70;30.07;;;1.00;99.90;;;;;;5072750;28;20032;-72
2023/03/04 04:13:27;;;;;;;93.07;31.60;;;1.00;99.90;;;;;;5073828;28;20560;-72
2023/03/04 04:15:53;;;;;;;96.43;31.23;;;1.00;99.90;;;;;;5072026;28;20032;-72
2023/03/04 04:18:18;;;;;;;88.55;31.25;;;0.90;99.90;;;;;;5073410;28;20035;-72
2023/03/04 04:20:45;;;;;;;100.00;30.43;;;0.90;99.90;;;;;;5071903;28;20020;-72
2023/03/04 04:23:10;;;;;;;97.32;31.95;;;0.80;99.90;;;;;;5072169;28;20024;-72
2023/03/04 04:25:36;;;;;;;103.90;32.50;;;0.70;99.90;;;;;;5072276;28;20025;-72
2023/03/04 04:28:02;;;;;;;95.07;30.10;;;0.70;99.90;;;;;;5073326;28;20056;-73
2023/03/04 04:30:27;;;;;;;93.13;30.13;;;0.70;99.90;;;;;;5059192;28;20025;-73
2023/03/04 04:32:53;;;;;;;83.80;28.00;;;0.70;99.90;;;;;;5052684;28;20263;-73
2023/03/04 04:35:18;;;;;;;91.07;28.30;;;0.80;99.90;;;;;;5055842;28;20112;-73
2023/03/04 04:37:44;;;;;;;84.63;30.47;;;0.80;99.90;;;;;;5053723;28;20029;-73
2023/03/04 04:40:10;;;;;;;92.23;30.33;;;0.80;99.90;;;;;;5054630;28;20029;-73
2023/03/04 04:42:36;;;;;;;92.50;30.63;;;0.80;99.90;;;;;;5052208;28;20031;-73
2023/03/04 04:45:02;;;;;;;91.23;28.57;;;0.90;99.90;;;;;;5051826;28;20029;-72
2023/03/04 04:47:27;;;;;;;92.20;29.17;;;1.00;99.90;;;;;;5055903;28;20366;-73
2023/03/04 04:49:53;;;;;;;90.07;28.83;;;0.90;99.90;;;;;;5053894;28;20091;-73
2023/03/04 04:52:18;;;;;;;90.90;29.80;;;0.80;99.90;;;;;;5052872;28;20548;-73
2023/03/04 04:54:44;;;;;;;87.60;30.10;;;0.80;99.90;;;;;;5053724;28;20025;-73
2023/03/04 04:57:10;;;;;;;89.40;30.40;;;0.90;99.90;;;;;;5054161;28;20118;-72
2023/03/04 04:59:35;;;;;;;91.07;29.83;;;0.90;99.90;;;;;;5051651;28;20393;-72
2023/03/04 05:02:01;;;;;;;93.03;31.70;;;0.90;99.90;;;;;;5051940;28;20029;-73
2023/03/04 05:04:26;;;;;;;89.80;31.07;;;0.90;99.90;;;;;;5051692;28;20029;-73
2023/03/04 05:06:52;;;;;;;89.93;28.73;;;0.90;99.90;;;;;;5051524;28;20195;-72
2023/03/04 05:09:19;;;;;;;92.37;29.00;;;0.80;99.90;;;;;;5051227;28;20024;-72
2023/03/04 05:11:45;;;;;;;88.53;30.70;;;0.90;99.90;;;;;;5052751;28;20477;-72
2023/03/04 05:14:10;;;;;;;90.77;30.07;;;0.80;99.90;;;;;;5051304;28;20029;-72
2023/03/04 05:16:36;;;;;;;91.67;29.80;;;0.80;99.90;;;;;;5052219;28;20029;-73
2023/03/04 05:19:01;;;;;;;89.33;30.40;;;0.80;99.90;;;;;;5052420;28;20063;-73
2023/03/04 05:21:27;;;;;;;91.97;28.93;;;0.80;99.90;;;;;;5053007;28;20500;-73
2023/03/04 05:23:52;;;;;;;99.57;29.13;;;0.80;99.90;;;;;;5053393;28;20493;-73
2023/03/04 05:26:18;;;;;;;87.10;28.30;;;0.80;99.90;;;;;;5051829;28;20032;-73
2023/03/04 05:28:44;;;;;;;96.15;31.23;;;0.70;99.90;;;;;;5051782;28;20128;-73
2023/03/04 05:31:10;;;;;;;93.68;30.70;;;0.70;99.90;;;;;;5072721;28;20020;-73
2023/03/04 05:33:36;;;;;;;91.13;29.27;;;0.70;99.90;;;;;;5071886;28;20023;-73
2023/03/04 05:36:03;;;;;;;85.13;29.25;;;0.70;99.90;;;;;;5073170;28;20029;-73
2023/03/04 05:38:29;;;;;;;91.22;30.65;;;0.70;99.90;;;;;;5073053;28;20024;-73
2023/03/04 05:41:00;;;;;;;98.73;29.87;;;0.70;99.90;;;;;;5072955;28;20021;-73
2023/03/04 05:43:27;;;;;;;94.45;29.92;;;0.60;99.90;;;;;;5071292;28;20300;-73
2023/03/04 05:45:54;;;;;;;93.45;29.27;;;0.60;99.90;;;;;;5071343;28;20444;-72
2023/03/04 05:48:20;;;;;;;93.05;30.00;;;0.70;99.90;;;;;;5072935;28;20362;-73
2023/03/04 05:50:46;;;;;;;89.28;30.10;;;0.60;99.90;;;;;;5072529;28;20029;-73
2023/03/04 05:53:11;;;;;;;91.53;30.60;;;0.60;99.90;;;;;;5071642;28;20025;-72
2023/03/04 05:55:37;;;;;;;94.03;31.37;;;0.60;99.90;;;;;;5074010;28;20812;-72
2023/03/04 05:58:03;;;;;;;89.27;31.07;;;0.60;99.90;;;;;;5075242;28;20267;-73
2023/03/04 06:00:28;;;;;;;95.00;32.40;;;0.70;99.90;;;;;;5074525;28;20024;-73
2023/03/04 06:02:54;;;;;;;89.23;29.53;;;0.70;99.90;;;;;;5075488;28;20035;-73
2023/03/04 06:05:20;;;;;;;91.77;30.83;;;0.70;99.90;;;;;;5074988;28;20020;-72
2023/03/04 06:07:46;;;;;;;92.10;29.30;;;0.70;99.90;;;;;;5075055;28;20112;-73
2023/03/04 06:10:14;;;;;;;93.05;29.52;;;0.70;99.90;;;;;;5076234;28;20485;-73
2023/03/04 06:12:40;;;;;;;93.28;30.70;;;0.70;99.90;;;;;;5074914;28;20362;-72
2023/03/04 06:15:08;;;;;;;99.60;30.65;;;0.70;99.90;;;;;;5075016;28;20032;-72
2023/03/04 06:17:34;;;;;;;89.43;29.85;;;0.70;99.90;;;;;;5075791;28;20108;-73
2023/03/04 06:19:59;;;;;;;88.37;30.37;;;0.80;99.90;;;;;;5075317;28;20113;-72
2023/03/04 06:22:25;;;;;;;98.83;30.57;;;0.80;99.90;;;;;;5075979;28;20027;-73
2023/03/04 06:24:51;;;;;;;100.30;31.20;;;0.90;99.90;;;;;;5076418;28;20090;-73
2023/03/04 06:27:17;;;;;;;;;;;0.90;99.90;;;;;;5075464;28;20470;-73
2023/03/04 06:29:43;;;;;;;90.90;30.20;;;0.90;99.90;;;;;;5067992;28;19959;-72
2023/03/04 06:32:08;;;;;;;88.37;29.40;;;1.00;99.90;;;;;;5063255;28;20021;-72
2023/03/04 06:34:35;;;;;;;93.83;29.47;;;1.10;99.90;;;;;;5072084;28;20033;-72
2023/03/04 06:37:00;;;;;;;90.95;30.52;;;1.20;99.90;;;;;;5065869;28;20079;-72
2023/03/04 06:39:26;;;;;;;87.23;29.30;;;1.20;99.90;;;;;;5058424;28;20068;-72
2023/03/04 06:41:51;;;;;;;80.43;30.40;;;1.40;99.90;;;;;;5057644;28;20099;-72
2023/03/04 06:44:17;;;;;;;86.97;30.77;;;1.70;99.90;;;;;;5058545;28;20088;-72
2023/03/04 06:46:43;;;;;;;92.47;30.33;;;1.90;99.90;;;;;;5058373;28;20025;-73
2023/03/04 06:49:08;;;;;;;85.87;28.77;;;1.90;99.90;;;;;;5058010;28;20079;-72
2023/03/04 06:51:34;;;;;;;86.40;29.77;;;2.00;99.90;;;;;;5061282;28;20104;-73
2023/03/04 06:54:00;;;;;;;88.30;29.95;;;2.20;99.90;;;;;;5067634;28;20025;-72
2023/03/04 06:56:25;;;;;;;91.13;30.00;;;2.20;99.90;;;;;;5068771;28;20040;-73
2023/03/04 06:58:51;;;;;;;81.93;28.60;;;2.10;99.90;;;;;;5067519;28;20072;-73
2023/03/04 07:01:23;;;;;;;98.20;32.03;;;2.00;99.90;;;;;;5077271;22;20033;-75
2023/03/04 07:03:51;;;;;;;93.10;31.92;;;2.00;99.90;;;;;;5054483;28;20021;-75
2023/03/04 07:06:19;;;;;;;91.25;31.55;;;2.00;99.90;;;;;;5051562;28;20052;-75
2023/03/04 07:08:45;;;;;;;88.57;30.77;;;2.00;99.90;;;;;;5034519;28;20032;-74
2023/03/04 07:11:11;;;;;;;90.30;31.77;;;2.00;99.90;;;;;;5034574;28;20081;-76
2023/03/04 07:13:37;;;;;;;84.72;28.58;;;1.90;99.90;;;;;;5053866;28;20540;-74
2023/03/04 07:16:12;;;;;;;78.50;27.65;;;1.80;99.90;;;;;;5041469;28;20025;-75
2023/03/04 07:18:37;;;;;;;79.30;28.73;;;1.90;99.90;;;;;;5039716;28;20029;-74
2023/03/04 07:21:04;;;;;;;82.95;29.60;;;2.00;99.90;;;;;;5037664;28;20036;-76
2023/03/04 07:23:30;;;;;;;79.13;28.80;;;2.10;99.90;;;;;;5037907;28;20052;-76
2023/03/04 07:25:55;;;;;;;73.57;25.23;;;2.20;99.90;;;;;;5034351;28;20473;-75
2023/03/04 07:28:21;;;;;;;72.30;25.70;;;2.20;99.90;;;;;;5034289;28;20474;-75
2023/03/04 07:30:47;;;;;;;66.80;24.77;;;2.30;99.90;;;;;;5033393;28;20091;-75
2023/03/04 07:33:13;;;;;;;68.67;26.60;;;2.30;99.90;;;;;;5033887;28;20099;-75
2023/03/04 07:35:39;;;;;;;71.35;25.10;;;2.30;99.90;;;;;;5033494;28;20116;-74
2023/03/04 07:38:04;;;;;;;72.85;26.15;;;2.40;99.90;;;;;;5036464;28;20112;-75
2023/03/04 07:40:30;;;;;;;72.73;26.70;;;2.40;99.90;;;;;;5033488;28;20474;-75
2023/03/04 07:42:56;;;;;;;66.07;26.27;;;2.50;99.90;;;;;;5033975;28;20072;-74
2023/03/04 07:45:23;;;;;;;74.38;27.88;;;2.50;99.90;;;;;;5034543;28;20053;-75
2023/03/04 07:47:48;;;;;;;;;;;2.50;99.90;;;;;;5035993;28;20029;-75
2023/03/04 07:50:15;;;;;;;70.72;26.35;;;2.50;99.90;;;;;;5044906;28;19909;-75
2023/03/04 07:52:41;;;;;;;;;;;2.60;99.90;;;;;;5057243;28;20025;-74
2023/03/04 07:55:08;;;;;;;70.82;25.73;;;2.80;99.90;;;;;;5053977;28;19909;-74
2023/03/04 07:57:34;;;;;;;66.72;25.90;;;2.90;99.90;;;;;;5053574;28;20029;-74
2023/03/04 07:59:59;;;;;;;65.68;26.05;;;3.20;99.90;;;;;;5053214;28;20520;-75
2023/03/04 08:02:25;;;;;;;66.80;24.37;;;3.20;99.90;;;;;;5052780;28;20021;-75
2023/03/04 08:04:51;;;;;;;64.03;24.33;;;3.20;99.90;;;;;;5052989;28;20029;-73
2023/03/04 08:07:19;;;;;;;63.03;26.17;;;3.10;99.90;;;;;;5053327;28;20032;-75
2023/03/04 08:09:44;;;;;;;63.38;25.92;;;3.00;99.90;;;;;;5052718;28;20272;-74
2023/03/04 08:12:10;;;;;;;61.37;23.67;;;3.00;99.90;;;;;;5054297;28;20032;-74
2023/03/04 08:14:35;;;;;;;67.03;27.03;;;3.00;99.90;;;;;;5053110;28;20052;-75
2023/03/04 08:17:01;;;;;;;64.37;24.27;;;3.00;99.90;;;;;;5052573;28;20021;-75
2023/03/04 08:19:26;;;;;;;56.47;22.17;;;3.30;99.90;;;;;;5052693;28;20036;-75
2023/03/04 08:21:52;;;;;;;53.10;21.97;;;3.50;99.90;;;;;;5053291;28;20017;-75
2023/03/04 08:24:17;;;;;;;59.73;22.37;;;3.50;99.90;;;;;;5055154;28;20028;-75
2023/03/04 08:26:46;;;;;;;53.37;22.73;;;3.90;99.90;;;;;;5061725;28;20021;-75
2023/03/04 08:29:19;;;;;;;66.07;27.30;;;3.90;99.90;;;;;;5062176;28;20512;-75
2023/03/04 08:31:45;;;;;;;53.53;21.70;;;3.90;99.90;;;;;;5060610;28;20083;-76
2023/03/04 08:34:13;;;;;;;53.53;23.73;;;3.90;99.90;;;;;;5057283;28;20063;-74
2023/03/04 08:36:39;;;;;;;52.15;22.40;;;3.90;99.90;;;;;;5053537;28;20036;-75
2023/03/04 08:39:05;;;;;;;51.03;22.52;;;4.00;99.90;;;;;;5050346;28;20354;-75
2023/03/04 08:41:32;;;;;;;53.30;21.83;;;4.00;99.90;;;;;;5042421;28;20113;-77
2023/03/04 08:43:59;;;;;;;55.90;23.02;;;4.10;99.90;;;;;;5047966;28;20021;-72
2023/03/04 08:46:24;;;;;;;48.40;21.52;;;4.20;99.90;;;;;;5053631;28;20032;-74
2023/03/04 08:48:50;;;;;;;53.87;21.57;;;4.40;99.90;;;;;;5040221;28;20108;-76
2023/03/04 08:51:16;;;;;;;52.47;22.13;;;4.40;99.90;;;;;;5036205;28;20025;-76
2023/03/04 08:53:41;;;;;;;44.97;21.47;;;4.50;99.90;;;;;;5033889;28;20030;-78
2023/03/04 08:56:08;;;;;;;49.72;21.00;;;4.30;99.90;;;;;;5036943;28;20112;-78
2023/03/04 08:58:34;;;;;;;49.28;22.20;;;4.40;99.90;;;;;;5035477;28;20029;-71
2023/03/04 09:01:01;;;;;;;46.73;22.20;;;4.40;99.90;;;;;;5044406;28;20116;-71
2023/03/04 09:03:27;;;;;;;48.53;21.40;;;4.30;99.90;;;;;;5051628;28;20447;-75
2023/03/04 09:05:53;;;;;;;51.55;22.67;;;4.40;99.90;;;;;;5050375;28;20030;-75
2023/03/04 09:08:18;;;;;;;46.50;22.00;;;4.60;99.90;;;;;;5054856;28;20021;-76
2023/03/04 09:10:45;;;;;;;49.03;22.73;;;4.80;99.90;;;;;;5052588;28;20315;-74
2023/03/04 09:13:11;;;;;;;49.33;21.80;;;5.10;99.90;;;;;;5050674;28;20085;-73
2023/03/04 09:15:42;;;;;;;49.63;24.52;;;5.40;99.90;;;;;;5060170;28;20139;-75
2023/03/04 09:18:09;;;;;;;47.25;22.25;;;5.70;99.90;;;;;;5041487;28;20370;-73
2023/03/04 09:20:34;;;;;;;53.90;23.60;;;5.70;99.90;;;;;;5040904;28;20085;-74
2023/03/04 09:23:00;;;;;;;57.47;23.60;;;5.50;99.90;;;;;;5054292;28;20045;-71
2023/03/04 09:25:26;;;;;;;50.47;24.53;;;5.20;99.90;;;;;;5047943;28;20083;-73
2023/03/04 09:27:51;;;;;;;59.67;25.90;;;5.20;99.90;;;;;;5035828;28;20026;-68
2023/03/04 09:30:17;;;;;;;52.50;26.03;;;4.70;99.90;;;;;;5055302;28;20025;-72
2023/03/04 09:32:43;;;;;;;59.17;26.08;;;4.60;99.90;;;;;;5061017;28;20025;-72
2023/03/04 09:35:08;;;;;;;56.83;25.70;;;4.50;99.90;;;;;;5063220;28;20036;-72
2023/03/04 09:37:35;;;;;;;64.13;27.55;;;4.60;99.90;;;;;;5054966;28;20036;-70
2023/03/04 09:40:00;;;;;;;57.95;28.13;;;4.90;99.90;;;;;;5051794;28;20033;-72
2023/03/04 09:42:33;;;;;;;73.97;35.23;;;5.00;99.90;;;;;;5056434;28;20050;-73
2023/03/04 09:45:00;;;;;;;62.78;28.08;;;5.20;99.90;;;;;;5056458;28;20259;-71
2023/03/04 09:47:25;;;;;;;;;;;5.30;99.90;;;;;;5057354;28;20025;-72
2023/03/04 09:50:00;;;;;;;57.17;26.27;;;5.30;99.90;;;;;;5059815;28;19905;-72
2023/03/04 09:52:28;;;;;;;54.35;26.92;;;5.40;99.90;;;;;;5057000;28;20048;-71
2023/03/04 09:54:53;;;;;;;63.15;29.30;;;5.50;99.90;;;;;;5061959;28;20032;-71
2023/03/04 09:57:26;;;;;;;62.50;27.53;;;5.20;99.90;;;;;;5055398;28;20021;-71
2023/03/04 10:00:24;;;;;;;63.15;29.10;;;5.30;99.90;;;;;;5049747;28;20029;-69
2023/03/04 10:03:08;;;;;;;60.03;28.40;;;5.30;99.90;;;;;;5060889;28;20044;-72
2023/03/04 10:05:43;;;;;;;64.25;27.90;;;5.40;99.90;;;;;;5061462;28;20025;-73
2023/03/04 10:08:35;;;;;;;64.60;28.60;;;5.60;99.90;;;;;;5059684;28;20029;-71
2023/03/04 10:11:05;;;;;;;60.28;27.55;;;5.80;99.90;;;;;;5057558;28;20028;-71
2023/03/04 10:13:43;;;;;;;57.47;26.65;;;5.90;99.90;;;;;;5058446;28;20025;-71
2023/03/04 10:16:13;;;;;;;58.38;27.02;;;6.10;99.90;;;;;;5059563;28;20156;-72
2023/03/04 10:18:45;;;;;;;61.38;28.08;;;6.10;99.90;;;;;;5057919;28;20045;-71
2023/03/04 10:21:22;;;;;;;58.13;26.83;;;6.10;99.90;;;;;;5057259;28;20029;-69
2023/03/04 10:23:48;;;;;;;61.90;27.30;;;6.10;99.90;;;;;;5056352;28;20025;-71
2023/03/04 10:26:19;;;;;;;65.90;28.05;;;6.20;99.90;;;;;;5057896;28;20021;-73
2023/03/04 10:28:45;;;;;;;56.40;27.48;;;6.30;99.90;;;;;;5058877;28;20036;-74
2023/03/04 10:31:36;;;;;;;58.80;27.63;;;6.20;99.90;;;;;;5057999;28;20021;-74
2023/03/04 10:34:03;;;;;;;59.75;27.17;;;6.20;99.90;;;;;;5056785;28;20021;-75
2023/03/04 10:36:29;;;;;;;62.13;27.88;;;6.30;99.90;;;;;;5056173;28;20545;-71
2023/03/04 10:39:00;;;;;;;52.90;25.70;;;5.90;99.90;;;;;;5056385;28;20056;-70
2023/03/04 10:41:27;;;;;;;53.50;25.17;;;6.00;99.90;;;;;;5053949;28;20120;-69
2023/03/04 10:43:59;;;;;;;52.10;24.80;;;5.70;99.90;;;;;;5056355;28;20057;-72
2023/03/04 10:46:25;;;;;;;53.70;24.83;;;5.50;99.90;;;;;;5055757;28;20036;-71
2023/03/04 10:48:52;;;;;;;53.03;25.58;;;5.50;99.90;;;;;;5056184;28;20108;-72
2023/03/04 10:51:28;;;;;;;52.38;23.75;;;5.70;99.90;;;;;;5054950;28;20029;-70
2023/03/04 10:54:05;;;;;;;54.15;24.60;;;5.90;99.90;;;;;;5055641;28;20082;-70
2023/03/04 10:56:39;;;;;;;50.58;24.48;;;5.80;99.90;;;;;;5055190;28;20410;-71
2023/03/04 10:59:31;;;;;;;50.47;23.77;;;5.90;99.90;;;;;;5054902;28;20028;-70
2023/03/04 11:02:12;;;;;;;50.65;23.60;;;5.80;99.90;;;;;;5054558;28;20389;-69
2023/03/04 11:04:37;;;;;;;53.92;23.25;;;5.70;99.90;;;;;;5054668;28;20536;-70
2023/03/04 11:07:09;;;;;;;51.77;23.27;;;5.60;99.90;;;;;;5055854;28;20056;-71
2023/03/04 11:09:35;;;;;;;52.38;24.50;;;5.60;99.90;;;;;;5055469;28;20103;-70
2023/03/04 11:12:03;;;;;;;59.23;24.87;;;5.50;99.90;;;;;;5055239;28;20037;-70
2023/03/04 11:14:44;;;;;;;56.60;24.98;;;5.50;99.90;;;;;;5056583;28;20021;-71
2023/03/04 11:17:37;;;;;;;49.70;23.85;;;5.50;99.90;;;;;;5055369;28;20116;-71
2023/03/04 11:20:31;;;;;;;51.95;23.52;;;5.60;99.90;;;;;;5056154;28;20045;-70
2023/03/04 11:23:05;;;;;;;50.35;23.83;;;5.60;99.90;;;;;;5057640;28;20024;-70
2023/03/04 11:25:40;;;;;;;55.35;24.35;;;5.50;99.90;;;;;;5057579;28;20025;-70
2023/03/04 11:28:14;;;;;;;53.17;23.40;;;5.50;99.90;;;;;;5056299;28;20025;-69
2023/03/04 11:30:49;;;;;;;51.65;23.55;;;5.40;99.90;;;;;;5055945;28;20043;-69
2023/03/04 11:33:41;;;;;;;52.30;23.10;;;5.40;99.90;;;;;;5056790;28;20031;-71
2023/03/04 11:36:22;;;;;;;53.30;23.95;;;5.30;99.90;;;;;;5052500;28;20200;-70
2023/03/04 11:38:50;;;;;;;52.95;23.02;;;5.30;99.90;;;;;;5056764;28;20112;-74
2023/03/04 11:41:22;;;;;;;55.78;23.92;;;5.30;99.90;;;;;;5055784;28;20066;-70
2023/03/04 11:43:48;;;;;;;55.30;24.38;;;5.30;99.90;;;;;;5059591;28;20053;-73
2023/03/04 11:46:46;;;;;;;56.10;22.30;;;5.30;99.90;;;;;;5060017;28;20092;-78
2023/03/04 11:49:57;;;;;;;51.05;22.25;;;5.20;99.90;;;;;;5060829;28;20297;-70
2023/03/04 11:52:41;;;;;;;52.63;23.10;;;5.30;99.90;;;;;;5058905;28;20135;-71
2023/03/04 11:55:07;;;;;;;51.00;22.80;;;5.40;99.90;;;;;;5058856;28;20071;-75
2023/03/04 11:57:53;;;;;;;58.13;22.37;;;5.50;99.90;;;;;;5058143;28;20033;-71
2023/03/04 12:00:57;;;;;;;49.10;22.77;;;5.70;99.90;;;;;;5054739;28;20102;-72
2023/03/04 12:03:49;;;;;;;50.28;22.88;;;5.70;99.90;;;;;;5056491;28;20077;-70
2023/03/04 12:07:03;;;;;;;53.70;22.73;;;5.80;99.90;;;;;;5058045;28;20029;-75
2023/03/04 12:09:55;;;;;;;49.13;22.45;;;5.80;99.90;;;;;;5042839;28;20101;-72
2023/03/04 12:12:24;;;;;;;48.05;22.25;;;5.80;99.90;;;;;;5024657;28;20132;-70
2023/03/04 12:15:19;;;;;;;50.10;22.08;;;5.70;99.90;;;;;;5022579;28;20059;-74
2023/03/04 12:18:19;;;;;;;49.80;22.25;;;5.60;99.90;;;;;;5023645;28;20036;-70
2023/03/04 12:21:22;;;;;;;53.03;22.98;;;5.60;99.90;;;;;;5024326;28;20021;-68
2023/03/04 12:24:16;;;;;;;51.83;22.27;;;5.60;99.90;;;;;;5063299;28;20093;-74
2023/03/04 12:27:00;;;;;;;53.00;23.33;;;5.70;99.90;;;;;;5052204;28;20021;-73
2023/03/04 12:29:54;;;;;;;46.85;21.25;;;5.70;99.90;;;;;;5065206;28;20025;-74
2023/03/04 12:32:28;;;;;;;49.15;21.02;;;5.70;99.90;;;;;;5033472;28;20378;-69
2023/03/04 12:35:01;;;;;;;49.08;22.52;;;5.60;99.90;;;;;;5037260;28;20137;-69
2023/03/04 12:38:04;;;;;;;50.47;22.92;;;5.70;99.90;;;;;;5037521;28;20076;-69
2023/03/04 12:40:59;;;;;;;45.55;21.13;;;5.70;99.90;;;;;;5054859;28;20033;-69
2023/03/04 12:43:40;;;;;;;49.42;21.17;;;5.80;99.90;;;;;;5038300;28;20025;-70
2023/03/04 12:46:17;;;;;;;53.88;22.98;;;5.70;99.90;;;;;;5038742;28;20018;-69
2023/03/04 12:49:17;;;;;;;56.35;24.38;;;5.70;99.90;;;;;;5039209;28;20021;-70